Carmona, Texas
Current Conditions -  °F | °C
As of 11:53 PM on Thursday 27 Nov 2014 (Local Time) from KLFK Reporting Station
Clear Clear  
Wind Chill: 42°   Ceiling: Unl
Heat Index: 42°   Visibility: 10mi
Dew Point: 34°   Wind: 3mph
Humidity: 73%   Direction: 90°E
Pressure: 30.41"   Gusts: NA
Location:  31.024°N, 94.7686°W
Report Text: KLFK 280553Z AUTO 09003KT 10SM CLR 06/01 A3041 RMK AO2 SLP296 T00560011 10111 20050 401940050 58004 $
Loading
Personal Weather Stations






























Interactive Weather Map New forecast layout! Learn more

10-Day Weather Forecast

Advertisements
Track Severe Weather on mobile